Flight Track Log - Related Links

Times and Time Zones

All times are in EDT time to prevent confusion due to time zone crossing. See the SKW2630 flight status page for this flight to view local times or setup timezone preferences in your user account.

Time Position Orientation Groundspeed Altitude Reporting Facility
EDT Latitude Longitude Course Direction KTS MPH feet Rate Location/Type
Thu 11:46:24 AM 33.9500 -118.4500 270° West 164 189 1,400  Level Southern California TRACON
Thu 11:47:24 AM 33.9500 -118.5167 270° West 226 260 3,200 2,220 Climbing Southern California TRACON
Thu 11:48:04 AM 33.9369 -118.5708 254° West 251 289 5,100 2,854 Climbing Los Angeles Center
Thu 11:49:07 AM 33.9519 -118.6669 281° West 282 325 8,100 1,872 Climbing Los Angeles Center
Thu 11:50:09 AM 33.9814 -118.7586 291° West 296 341 9,000 435 Climbing Los Angeles Center
Thu 11:51:11 AM 34.0342 -118.8086 322° Northwest 292 336 9,000  Level Los Angeles Center
Thu 11:52:13 AM 34.0836 -118.7217 56° Northeast 281 323 9,000  Level Los Angeles Center
Thu 11:53:15 AM 34.1297 -118.6497 52° Northeast 271 312 9,000 1,258 Level Los Angeles Center
Thu 11:54:17 AM 34.2092 -118.6522 359° North 290 334 11,600 2,419 Climbing Los Angeles Center
Thu 11:55:19 AM 34.2953 -118.6714 350° North 313 360 14,000 2,226 Climbing Los Angeles Center
Thu 11:56:21 AM 34.3842 -118.6897 350° North 323 372 16,200 2,032 Climbing Los Angeles Center
Thu 11:57:23 AM 34.4758 -118.7081 351° North 333 383 18,200 1,935 Climbing Los Angeles Center
Thu 11:58:25 AM 34.5675 -118.7278 350° North 335 386 20,200 1,824 Climbing Los Angeles Center
Thu 11:59:28 AM 34.6811 -118.7553 349° North 349 402 22,000 864 Climbing Los Angeles Center
Thu 12:00:30 PM 34.7844 -118.7747 351° North 379 436 22,000  Level Los Angeles Center
Thu 12:01:32 PM 34.8908 -118.7997 349° North 390 449 22,000  Level Los Angeles Center
Thu 12:02:34 PM 34.9989 -118.8228 350° North 393 452 22,000  Level Los Angeles Center
Thu 12:03:36 PM 35.1103 -118.8447 351° North 397 457 22,000  Level Los Angeles Center
Thu 12:04:38 PM 35.2231 -118.8692 350° North 406 467 22,000  Level Los Angeles Center
Thu 12:05:40 PM 35.3536 -118.8981 350° North 403 464 22,000  Level Los Angeles Center
Thu 12:06:42 PM 35.4633 -118.9219 350° North 401 461 22,000 -629 Level Los Angeles Center
Thu 12:07:44 PM 35.5719 -118.9456 350° North 399 459 20,700 -1,596 Descending Los Angeles Center
Thu 12:08:31 PM 35.6569 -118.9642 350° North 396 456 19,100 -1,817 Descending Oakland Center
Thu 12:09:33 PM 35.7575 -118.9853 350° North 380 437 17,400 -1,707 Descending Oakland Center
Thu 12:10:34 PM 35.8556 -119.0075 350° North 368 423 15,600 -1,561 Descending Oakland Center
Thu 12:11:36 PM 35.9475 -119.0386 345° North 350 403 14,200 -780 Descending Oakland Center
Thu 12:12:37 PM 36.0575 -119.0897 339° North 350 403 14,000 -98 Descending Oakland Center
Thu 12:13:39 PM 36.1514 -119.1344 339° North 357 411 14,000 -195 Level Oakland Center
Thu 12:14:40 PM 36.2467 -119.1792 339° North 365 420 13,600 -1,180 Descending Oakland Center
Thu 12:15:41 PM 36.3386 -119.2225 339° North 356 410 11,600 -1,659 Descending Oakland Center
Thu 12:16:43 PM 36.4242 -119.2631 339° North 330 380 10,200 -1,415 Descending Oakland Center
Thu 12:17:44 PM 36.4953 -119.2972 339° North 279 321 8,700 -1,707 Descending Oakland Center
Thu 12:18:46 PM 36.5608 -119.3417 331° Northwest 276 318 6,700 -1,902 Descending Oakland Center
Thu 12:19:47 PM 36.6039 -119.4153 306° West 264 304 4,800 -1,707 Descending Oakland Center
Thu 12:20:49 PM 36.6533 -119.4997 306° West 253 291 3,200 -1,073 Descending Oakland Center
Thu 12:21:50 PM 36.6878 -119.5597 306° West 222 255 2,600 -492 Descending Oakland Center
Thu 12:22:51 PM 36.7117 -119.6067 302° West 169 194 2,200 -537 Descending Oakland Center
Thu 12:23:53 PM 36.7369 -119.6514 305° West 151 174 1,500 -683 Descending Oakland Center
Thu 12:24:54 PM 36.7586 -119.6894 305° West 141 162 800 -541 Descending Oakland Center
Thu 12:25:55 PM 36.7792 -119.7239 307° West 136 157 400 -393 Descending Oakland Center
Thu 12:27:00 PM 36.7764 -119.7187 North  Level Estimated
Thu 12:34:00 PM 36.7764 -119.7187 North  Level Estimated

Login

Don't have an account? Register now (free) for customized features, flight alerts, and more!